Vb Bretagne — FMHX — position and weather

sailwx.info

Track history (hours):
 
Tides and Currents Weather Stations Pressure Air Temp Water Temp Dewpoint Dewpoint Depression Visibility Wind Speed Wind Dir Waves Ship Positions

Vb Bretagne

Last reported at 2014-Nov-01 01:13 UTC. Time now 2014-Nov-01 07:46 UTC.
Position N 47°18' W 002°05'.

Length 32 m; draft 4.1 m.

Type: Tug. MMSI: 228234700.

Date/timePositionNaut miles runAvg speedWind from/ knotsBaromVisibWave heightAir tempDewpointWater temp
2014-Nov-01 01:13N 47°18' W 002°05'2 1.1
2014-Oct-31 23:30N 47°18' W 002°08'3 0.2
2014-Oct-31 10:06N 47°16' W 002°11'2 2.8
2014-Oct-31 09:22N 47°18' W 002°09'3 0.8
2014-Oct-31 06:12N 47°16' W 002°12'0 0.0
2014-Oct-31 02:25N 47°16' W 002°12'0 0.0
2014-Oct-31 01:31N 47°16' W 002°12'0 0.0
2014-Oct-30 22:07N 47°16' W 002°12'0 0.0
2014-Oct-30 21:11N 47°16' W 002°12'0 0.0
2014-Oct-30 19:22N 47°16' W 002°12'0 0.0
2014-Oct-30 07:05N 47°16' W 002°12'0 0.0
2014-Oct-30 06:30N 47°16' W 002°12'0 0.0
2014-Oct-29 23:05N 47°16' W 002°12'0 0.3
2014-Oct-29 22:23N 47°16' W 002°12'0 0.0
2014-Oct-29 20:23N 47°16' W 002°12'0 0.0
2014-Oct-29 19:33N 47°16' W 002°12'0 0.0
2014-Oct-29 18:33N 47°16' W 002°12'0 0.0
2014-Oct-29 17:33N 47°16' W 002°12'0 0.0
2014-Oct-29 16:33N 47°16' W 002°12'0 0.0
2014-Oct-29 15:31N 47°16' W 002°12'5 4.6
2014-Oct-29 14:27N 47°18' W 002°06'4 4.6
2014-Oct-29 13:32N 47°16' W 002°11'1 0.2
2014-Oct-29 10:33N 47°16' W 002°12'0 0.0
2014-Oct-29 09:30N 47°16' W 002°12'0 0.0
2014-Oct-29 08:33N 47°16' W 002°12'0 0.1
2014-Oct-29 07:28N 47°16' W 002°12'0 0.0
2014-Oct-29 06:31N 47°16' W 002°12'0 0.0
2014-Oct-29 05:31N 47°16' W 002°12'0 0.0
2014-Oct-29 04:33N 47°16' W 002°12'0 0.0
2014-Oct-29 03:32N 47°16' W 002°12'0 0.0
2014-Oct-29 01:21N 47°16' W 002°12'0 0.0
2014-Oct-29 00:26N 47°16' W 002°12'0 0.0
2014-Oct-28 23:33N 47°16' W 002°12'0 0.0
2014-Oct-28 21:04N 47°16' W 002°12'0 0.0
2014-Oct-28 20:29N 47°16' W 002°12'0 0.0
2014-Oct-28 19:15N 47°16' W 002°12'0 0.0
2014-Oct-28 15:04N 47°16' W 002°12'0 0.0
2014-Oct-28 14:31N 47°16' W 002°12'0 0.0
2014-Oct-28 12:20N 47°16' W 002°12'0 0.0
2014-Oct-28 10:03N 47°16' W 002°12'0 0.0
2014-Oct-28 09:12N 47°16' W 002°12'5 1.1
2014-Oct-28 04:33N 47°18' W 002°05'1 0.0
2014-Oct-27 14:32N 47°18' W 002°06'1 0.3
2014-Oct-27 12:18N 47°18' W 002°05'0 0.0
2014-Oct-27 11:33N 47°18' W 002°05'2 2.0
2014-Oct-27 10:29N 47°18' W 002°08'3 1.1
2014-Oct-27 07:33N 47°16' W 002°12'0 0.0
2014-Oct-27 06:33N 47°16' W 002°12'0 0.0
2014-Oct-27 05:31N 47°16' W 002°12'0 0.0
2014-Oct-27 04:11N 47°16' W 002°12'  
Track history (hours):
 
Tides and Currents Weather Stations Pressure Air Temp Water Temp Dewpoint Dewpoint Depression Visibility Wind Speed Wind Dir Waves Ship Positions

Vb Bretagne

Last reported at 2014-Nov-01 01:13 UTC. Time now 2014-Nov-01 07:46 UTC.
Position N 47°18' W 002°05'.

Length 32 m; draft 4.1 m.

Type: Tug. MMSI: 228234700.

Date/timePositionNaut miles runAvg speedWind from/ knotsBaromVisibWave heightAir tempDewpointWater temp
2014-Nov-01 01:13N 47°18' W 002°05'2 1.1
2014-Oct-31 23:30N 47°18' W 002°08'3 0.2
2014-Oct-31 10:06N 47°16' W 002°11'2 2.8
2014-Oct-31 09:22N 47°18' W 002°09'3 0.8
2014-Oct-31 06:12N 47°16' W 002°12'0 0.0
2014-Oct-31 02:25N 47°16' W 002°12'0 0.0
2014-Oct-31 01:31N 47°16' W 002°12'0 0.0
2014-Oct-30 22:07N 47°16' W 002°12'0 0.0
2014-Oct-30 21:11N 47°16' W 002°12'0 0.0
2014-Oct-30 19:22N 47°16' W 002°12'0 0.0
2014-Oct-30 07:05N 47°16' W 002°12'0 0.0
2014-Oct-30 06:30N 47°16' W 002°12'0 0.0
2014-Oct-29 23:05N 47°16' W 002°12'0 0.3
2014-Oct-29 22:23N 47°16' W 002°12'0 0.0
2014-Oct-29 20:23N 47°16' W 002°12'0 0.0
2014-Oct-29 19:33N 47°16' W 002°12'0 0.0
2014-Oct-29 18:33N 47°16' W 002°12'0 0.0
2014-Oct-29 17:33N 47°16' W 002°12'0 0.0
2014-Oct-29 16:33N 47°16' W 002°12'0 0.0
2014-Oct-29 15:31N 47°16' W 002°12'5 4.6
2014-Oct-29 14:27N 47°18' W 002°06'4 4.6
2014-Oct-29 13:32N 47°16' W 002°11'1 0.2
2014-Oct-29 10:33N 47°16' W 002°12'0 0.0
2014-Oct-29 09:30N 47°16' W 002°12'0 0.0
2014-Oct-29 08:33N 47°16' W 002°12'0 0.1
2014-Oct-29 07:28N 47°16' W 002°12'0 0.0
2014-Oct-29 06:31N 47°16' W 002°12'0 0.0
2014-Oct-29 05:31N 47°16' W 002°12'0 0.0
2014-Oct-29 04:33N 47°16' W 002°12'0 0.0
2014-Oct-29 03:32N 47°16' W 002°12'0 0.0
2014-Oct-29 01:21N 47°16' W 002°12'0 0.0
2014-Oct-29 00:26N 47°16' W 002°12'0 0.0
2014-Oct-28 23:33N 47°16' W 002°12'0 0.0
2014-Oct-28 21:04N 47°16' W 002°12'0 0.0
2014-Oct-28 20:29N 47°16' W 002°12'0 0.0
2014-Oct-28 19:15N 47°16' W 002°12'0 0.0
2014-Oct-28 15:04N 47°16' W 002°12'0 0.0
2014-Oct-28 14:31N 47°16' W 002°12'0 0.0
2014-Oct-28 12:20N 47°16' W 002°12'0 0.0
2014-Oct-28 10:03N 47°16' W 002°12'0 0.0
2014-Oct-28 09:12N 47°16' W 002°12'5 1.1
2014-Oct-28 04:33N 47°18' W 002°05'1 0.0
2014-Oct-27 14:32N 47°18' W 002°06'1 0.3
2014-Oct-27 12:18N 47°18' W 002°05'0 0.0
2014-Oct-27 11:33N 47°18' W 002°05'2 2.0
2014-Oct-27 10:29N 47°18' W 002°08'3 1.1
2014-Oct-27 07:33N 47°16' W 002°12'0 0.0
2014-Oct-27 06:33N 47°16' W 002°12'0 0.0
2014-Oct-27 05:31N 47°16' W 002°12'0 0.0
2014-Oct-27 04:11N 47°16' W 002°12'  

Dump ship's entire track history